createdAt,value
2022-11-05T00:00:34.971Z,6.50
2022-11-05T00:03:20.360Z,6.40
2022-11-05T00:06:08.305Z,6.40
2022-11-05T00:08:53.997Z,6.40
2022-11-05T00:11:41.282Z,6.40
2022-11-05T00:14:27.137Z,6.40
2022-11-05T00:16:53.721Z,6.40
2022-11-05T00:19:20.625Z,6.40
2022-11-05T00:22:06.540Z,6.40
2022-11-05T00:24:52.318Z,6.40
2022-11-05T00:27:19.077Z,6.30
2022-11-05T00:29:45.674Z,6.30
2022-11-05T00:32:13.344Z,6.30
2022-11-05T00:34:39.933Z,6.30
2022-11-05T00:37:07.175Z,6.30
2022-11-05T00:39:33.784Z,6.20
2022-11-05T00:42:19.779Z,6.20
2022-11-05T00:45:01.792Z,6.20
2022-11-05T00:47:48.729Z,6.20
2022-11-05T00:50:15.476Z,6.20
2022-11-05T00:52:58.023Z,6.10
2022-11-05T00:55:34.056Z,6.10
2022-11-05T00:58:03.519Z,6.10
2022-11-05T01:00:32.304Z,6.00
2022-11-05T01:03:01.530Z,6.00
2022-11-05T01:05:29.839Z,6.00
2022-11-05T01:07:57.625Z,6.00
2022-11-05T01:10:25.192Z,6.00
2022-11-05T01:12:52.272Z,6.00
2022-11-05T01:15:20.121Z,5.90
2022-11-05T01:17:47.502Z,5.90
2022-11-05T01:20:15.029Z,5.80
2022-11-05T01:22:42.521Z,5.80
2022-11-05T01:25:10.109Z,5.80
2022-11-05T01:27:37.464Z,5.80
2022-11-05T01:30:07.490Z,5.80
2022-11-05T01:32:36.442Z,5.70
2022-11-05T01:35:05.634Z,5.80
2022-11-05T01:37:33.755Z,5.70
2022-11-05T01:40:00.396Z,5.70
2022-11-05T01:42:28.627Z,5.70
2022-11-05T01:44:59.974Z,5.60
2022-11-05T01:47:38.223Z,5.60
2022-11-05T01:50:36.117Z,5.50
2022-11-05T01:53:14.899Z,5.50
2022-11-05T01:55:51.739Z,5.40
2022-11-05T01:58:22.736Z,5.40
2022-11-05T02:00:50.415Z,5.40
2022-11-05T02:03:17.995Z,5.40
2022-11-05T02:05:46.576Z,5.40
2022-11-05T02:08:25.961Z,5.40
2022-11-05T02:10:53.346Z,5.40
2022-11-05T02:13:19.913Z,5.40
2022-11-05T02:16:19.317Z,5.30
2022-11-05T02:19:03.281Z,5.30
2022-11-05T02:21:36.451Z,5.30
2022-11-05T02:24:21.240Z,5.30
2022-11-05T02:27:15.951Z,5.40
2022-11-05T02:30:04.054Z,5.40
2022-11-05T02:32:51.876Z,5.50
2022-11-05T02:35:49.172Z,5.60
2022-11-05T02:38:37.310Z,5.70
2022-11-05T02:41:30.437Z,5.80
2022-11-05T02:44:35.361Z,5.90
2022-11-05T02:47:41.205Z,5.90
2022-11-05T02:50:24.674Z,5.80
2022-11-05T02:52:59.842Z,5.70
2022-11-05T02:55:45.302Z,5.70
2022-11-05T02:58:13.735Z,5.60
2022-11-05T03:00:54.658Z,5.60
2022-11-05T03:03:32.523Z,5.60
2022-11-05T03:06:27.546Z,5.50
2022-11-05T03:09:15.306Z,5.50
2022-11-05T03:12:02.846Z,5.50
2022-11-05T03:14:50.991Z,5.50
2022-11-05T03:17:55.631Z,5.50
2022-11-05T03:20:47.962Z,5.40
2022-11-05T03:23:26.751Z,5.40
2022-11-05T03:26:17.550Z,5.40
2022-11-05T03:28:52.067Z,5.40
2022-11-05T03:31:20.499Z,5.40
2022-11-05T03:33:48.911Z,5.40
2022-11-05T03:36:21.917Z,5.40
2022-11-05T03:38:51.327Z,5.40
2022-11-05T03:41:21.033Z,5.40
2022-11-05T03:43:52.464Z,5.40
2022-11-05T03:46:28.900Z,5.40
2022-11-05T03:48:58.937Z,5.40
2022-11-05T03:51:48.792Z,5.30
2022-11-05T03:54:15.563Z,5.30
2022-11-05T03:57:05.976Z,5.30
2022-11-05T03:59:38.369Z,5.30
2022-11-05T04:02:05.660Z,5.30
2022-11-05T04:04:32.341Z,5.30
2022-11-05T04:07:18.144Z,5.30
2022-11-05T04:10:03.225Z,5.30
2022-11-05T04:12:48.982Z,5.30
2022-11-05T04:15:15.712Z,5.30
2022-11-05T04:17:43.004Z,5.30
2022-11-05T04:20:28.553Z,5.30
2022-11-05T04:23:25.510Z,5.30
2022-11-05T04:25:52.104Z,5.30
2022-11-05T04:28:19.639Z,5.30
2022-11-05T04:30:46.269Z,5.30
2022-11-05T04:33:17.382Z,5.20
2022-11-05T04:35:47.022Z,5.20
2022-11-05T04:38:17.186Z,5.20
2022-11-05T04:40:45.270Z,5.20
2022-11-05T04:43:15.623Z,5.10
2022-11-05T04:45:43.199Z,5.20
2022-11-05T04:48:11.261Z,5.20
2022-11-05T04:50:38.025Z,5.10
2022-11-05T04:53:04.906Z,5.10
2022-11-05T04:55:32.272Z,5.10
2022-11-05T04:57:58.995Z,5.10
2022-11-05T05:00:26.422Z,5.00
2022-11-05T05:02:53.068Z,5.00
2022-11-05T05:05:21.468Z,5.00
2022-11-05T05:07:48.081Z,5.00
2022-11-05T05:10:15.354Z,5.00
2022-11-05T05:12:41.929Z,5.00
2022-11-05T05:15:09.371Z,5.00
2022-11-05T05:17:36.023Z,4.90
2022-11-05T05:20:22.315Z,5.00
2022-11-05T05:22:55.484Z,4.90
2022-11-05T05:25:23.531Z,4.90
2022-11-05T05:27:50.500Z,4.90
2022-11-05T05:30:18.325Z,4.80
2022-11-05T05:32:44.945Z,4.80
2022-11-05T05:35:12.279Z,4.80
2022-11-05T05:37:38.909Z,4.80
2022-11-05T05:40:06.671Z,4.80
2022-11-05T05:42:36.320Z,4.80
2022-11-05T05:45:06.670Z,4.70
2022-11-05T05:47:33.219Z,4.70
2022-11-05T05:50:00.443Z,4.70
2022-11-05T05:52:27.017Z,4.70
2022-11-05T05:54:54.276Z,4.70
2022-11-05T05:57:20.866Z,4.70
2022-11-05T05:59:48.111Z,4.60
2022-11-05T06:02:15.900Z,4.60
2022-11-05T06:04:42.975Z,4.60
2022-11-05T06:07:10.238Z,4.60
2022-11-05T06:09:36.878Z,4.60
2022-11-05T06:12:04.410Z,4.60
2022-11-05T06:14:30.983Z,4.50
2022-11-05T06:16:58.206Z,4.60
2022-11-05T06:19:24.800Z,4.50
2022-11-05T06:21:52.047Z,4.50
2022-11-05T06:24:18.639Z,4.50
2022-11-05T06:26:46.055Z,4.50
2022-11-05T06:29:12.728Z,4.50
2022-11-05T06:31:39.999Z,4.50
2022-11-05T06:34:06.769Z,4.50
2022-11-05T06:36:34.111Z,4.50
2022-11-05T06:39:00.700Z,4.50
2022-11-05T06:41:27.965Z,4.60
2022-11-05T06:43:54.648Z,4.60
2022-11-05T06:46:22.021Z,4.60
2022-11-05T06:48:48.635Z,4.60
2022-11-05T06:51:16.166Z,4.60
2022-11-05T06:53:42.773Z,4.60
2022-11-05T06:56:10.023Z,4.60
2022-11-05T06:58:37.087Z,4.60
2022-11-05T07:01:09.751Z,4.60
2022-11-05T07:03:37.680Z,4.60
2022-11-05T07:06:05.988Z,4.60
2022-11-05T07:08:35.460Z,4.60
2022-11-05T07:11:02.199Z,4.60
2022-11-05T07:13:29.624Z,4.70
2022-11-05T07:15:56.581Z,4.70
2022-11-05T07:18:24.237Z,4.80
2022-11-05T07:20:50.815Z,4.80
2022-11-05T07:23:18.171Z,4.90
2022-11-05T07:25:45.022Z,4.90
2022-11-05T07:28:11.989Z,5.00
2022-11-05T07:30:39.214Z,5.00
2022-11-05T07:33:06.477Z,5.10
2022-11-05T07:35:33.213Z,5.30
2022-11-05T07:38:00.509Z,5.70
2022-11-05T07:40:29.106Z,5.80
2022-11-05T07:43:01.381Z,6.10
2022-11-05T07:45:29.666Z,6.50
2022-11-05T07:48:02.615Z,6.90
2022-11-05T07:50:31.611Z,7.00
2022-11-05T07:53:07.491Z,7.50
2022-11-05T07:55:35.378Z,8.10
2022-11-05T07:58:03.462Z,8.20
2022-11-05T08:00:30.741Z,8.20
2022-11-05T08:03:18.341Z,8.20
2022-11-05T08:05:47.474Z,8.40
2022-11-05T08:08:17.463Z,8.90
2022-11-05T08:10:44.153Z,9.30
2022-11-05T08:13:13.559Z,9.20
2022-11-05T08:15:42.103Z,8.90
2022-11-05T08:18:13.234Z,8.50
2022-11-05T08:20:41.053Z,8.20
2022-11-05T08:23:09.055Z,8.00
2022-11-05T08:25:39.568Z,7.90
2022-11-05T08:28:13.761Z,7.80
2022-11-05T08:30:41.023Z,7.70
2022-11-05T08:33:12.083Z,7.70
2022-11-05T08:35:39.955Z,7.70
2022-11-05T08:38:08.244Z,7.70
2022-11-05T08:40:36.189Z,7.70
2022-11-05T08:43:05.838Z,7.80
2022-11-05T08:45:33.215Z,7.80
2022-11-05T08:48:01.922Z,7.90
2022-11-05T08:50:28.821Z,8.00
2022-11-05T08:52:56.361Z,8.10
2022-11-05T08:55:23.337Z,8.10
2022-11-05T08:57:59.097Z,8.20
2022-11-05T09:00:26.877Z,8.20
2022-11-05T09:02:54.334Z,8.30
2022-11-05T09:05:21.449Z,8.30
2022-11-05T09:07:49.665Z,8.40
2022-11-05T09:10:16.395Z,8.40
2022-11-05T09:12:44.113Z,8.50
2022-11-05T09:15:11.107Z,8.50
2022-11-05T09:17:38.164Z,8.60
2022-11-05T09:20:07.294Z,8.70
2022-11-05T09:22:37.867Z,8.80
2022-11-05T09:25:08.467Z,8.80
2022-11-05T09:27:35.650Z,8.90
2022-11-05T09:30:03.582Z,9.00
2022-11-05T09:32:33.951Z,9.10
2022-11-05T09:35:01.486Z,9.10
2022-11-05T09:37:29.190Z,9.20
2022-11-05T09:39:56.409Z,9.30
2022-11-05T09:42:28.252Z,9.40
2022-11-05T09:45:01.993Z,9.40
2022-11-05T09:47:35.181Z,9.50
2022-11-05T09:50:07.721Z,9.50
2022-11-05T09:52:35.216Z,9.60
2022-11-05T09:55:04.160Z,9.60
2022-11-05T09:57:45.624Z,9.70
2022-11-05T10:00:16.707Z,9.70
2022-11-05T10:02:52.349Z,9.70
2022-11-05T10:05:20.647Z,9.80
2022-11-05T10:07:57.656Z,9.90
2022-11-05T10:10:41.842Z,9.90
2022-11-05T10:13:35.169Z,10.00
2022-11-05T10:16:25.433Z,10.00
2022-11-05T10:18:59.384Z,10.10
2022-11-05T10:21:51.493Z,10.20
2022-11-05T10:24:16.254Z,10.20
2022-11-05T10:26:46.411Z,10.30
2022-11-05T10:29:19.297Z,10.30
2022-11-05T10:31:46.177Z,10.30
2022-11-05T10:34:17.956Z,10.30
2022-11-05T10:36:44.649Z,10.40
2022-11-05T10:39:19.096Z,10.50
2022-11-05T10:42:20.901Z,10.60
2022-11-05T10:44:53.918Z,10.60
2022-11-05T10:47:37.031Z,10.70
2022-11-05T10:50:14.026Z,10.80
2022-11-05T10:52:53.631Z,10.90
2022-11-05T10:55:35.443Z,10.90
2022-11-05T10:58:25.395Z,11.00
2022-11-05T11:00:52.657Z,11.00
2022-11-05T11:03:45.001Z,11.00
2022-11-05T11:06:21.682Z,11.10
2022-11-05T11:08:50.180Z,11.10
2022-11-05T11:11:36.684Z,11.20
2022-11-05T11:14:06.213Z,11.20
2022-11-05T11:16:39.764Z,11.10
2022-11-05T11:19:23.172Z,11.20
2022-11-05T11:22:14.013Z,11.30
2022-11-05T11:24:48.099Z,11.40
2022-11-05T11:27:22.265Z,11.50
2022-11-05T11:29:55.862Z,11.60
2022-11-05T11:32:27.257Z,11.60
2022-11-05T11:34:57.442Z,11.60
2022-11-05T11:37:41.738Z,11.70
2022-11-05T11:40:22.977Z,11.70
2022-11-05T11:42:54.200Z,11.70
2022-11-05T11:45:28.867Z,11.70
2022-11-05T11:47:57.140Z,11.70
2022-11-05T11:50:43.030Z,11.70
2022-11-05T11:53:21.898Z,11.70
2022-11-05T11:55:55.258Z,11.70
2022-11-05T11:58:23.558Z,11.70
2022-11-05T12:00:59.423Z,11.70
2022-11-05T12:03:37.953Z,11.70
2022-11-05T12:06:16.284Z,11.70
2022-11-05T12:09:07.296Z,11.70
2022-11-05T12:11:50.878Z,11.80
2022-11-05T12:14:22.251Z,11.80
2022-11-05T12:17:04.456Z,11.80
2022-11-05T12:19:52.540Z,11.70
2022-11-05T12:22:42.868Z,11.70
2022-11-05T12:25:13.257Z,11.60
2022-11-05T12:28:07.212Z,11.60
2022-11-05T12:31:00.376Z,11.60
2022-11-05T12:33:47.188Z,11.70
2022-11-05T12:36:30.716Z,11.70
2022-11-05T12:39:04.380Z,11.70
2022-11-05T12:41:40.437Z,11.80
2022-11-05T12:44:15.365Z,11.80
2022-11-05T12:46:58.534Z,11.80
2022-11-05T12:49:33.918Z,11.80
2022-11-05T12:52:26.889Z,11.80
2022-11-05T12:55:17.928Z,11.70
2022-11-05T12:57:47.882Z,11.60
2022-11-05T13:00:22.608Z,11.60
2022-11-05T13:03:23.116Z,11.50
2022-11-05T13:06:06.358Z,11.50
2022-11-05T13:08:48.784Z,11.50
2022-11-05T13:11:19.247Z,11.50
2022-11-05T13:14:00.314Z,11.50
2022-11-05T13:16:31.014Z,11.40
2022-11-05T13:19:06.658Z,11.40
2022-11-05T13:21:36.414Z,11.40
2022-11-05T13:24:17.658Z,11.50
2022-11-05T13:27:15.035Z,11.50
2022-11-05T13:29:49.198Z,11.50
2022-11-05T13:32:42.087Z,11.50
2022-11-05T13:35:16.740Z,11.50
2022-11-05T13:38:05.759Z,11.40
2022-11-05T13:40:44.644Z,11.40
2022-11-05T13:43:33.935Z,11.40
2022-11-05T13:46:25.291Z,11.40
2022-11-05T13:48:52.519Z,11.40
2022-11-05T13:51:39.358Z,11.40
2022-11-05T13:54:12.484Z,11.40
2022-11-05T13:57:06.344Z,11.40
2022-11-05T13:59:57.023Z,11.40
2022-11-05T14:02:34.346Z,11.40
2022-11-05T14:05:02.623Z,11.30
2022-11-05T14:07:32.640Z,11.30
2022-11-05T14:10:26.777Z,11.30
2022-11-05T14:12:57.291Z,11.20
2022-11-05T14:15:28.460Z,11.20
2022-11-05T14:18:05.454Z,11.20
2022-11-05T14:20:32.693Z,11.20
2022-11-05T14:23:17.639Z,11.10
2022-11-05T14:25:44.901Z,11.10
2022-11-05T14:28:36.737Z,11.00
2022-11-05T14:31:41.167Z,11.00
2022-11-05T14:34:12.074Z,11.00
2022-11-05T14:36:43.193Z,11.00
2022-11-05T14:39:24.871Z,10.90
2022-11-05T14:41:58.303Z,10.90
2022-11-05T14:44:26.434Z,10.90
2022-11-05T14:46:57.264Z,10.90
2022-11-05T14:49:32.108Z,10.90
2022-11-05T14:52:05.127Z,10.90
2022-11-05T14:54:49.227Z,10.90
2022-11-05T14:57:44.746Z,10.90
2022-11-05T15:00:34.343Z,10.80
2022-11-05T15:03:04.096Z,10.80
2022-11-05T15:05:31.336Z,10.70
2022-11-05T15:07:58.909Z,10.70
2022-11-05T15:10:33.551Z,10.70
2022-11-05T15:13:05.931Z,10.70
2022-11-05T15:15:43.792Z,10.60
2022-11-05T15:18:33.265Z,10.60
2022-11-05T15:21:03.424Z,10.60
2022-11-05T15:23:42.546Z,10.60
2022-11-05T15:26:22.432Z,10.70
2022-11-05T15:28:54.023Z,10.60
2022-11-05T15:31:37.442Z,10.50
2022-11-05T15:34:25.406Z,10.40
2022-11-05T15:37:25.560Z,10.40
2022-11-05T15:39:54.582Z,10.30
2022-11-05T15:42:26.183Z,10.30
2022-11-05T15:44:55.660Z,10.20
2022-11-05T15:47:34.188Z,10.20
2022-11-05T15:50:14.939Z,10.10
2022-11-05T15:52:51.545Z,10.00
2022-11-05T15:55:23.888Z,9.90
2022-11-05T15:58:00.412Z,9.80
2022-11-05T16:00:30.926Z,9.70
2022-11-05T16:03:04.534Z,9.70
2022-11-05T16:05:35.386Z,9.60
2022-11-05T16:08:04.163Z,9.60
2022-11-05T16:10:38.782Z,9.50
2022-11-05T16:13:40.780Z,9.50
2022-11-05T16:16:14.182Z,9.50
2022-11-05T16:18:41.571Z,9.50
2022-11-05T16:21:22.806Z,9.50
2022-11-05T16:23:49.485Z,9.50
2022-11-05T16:29:29.218Z,9.50
2022-11-05T16:31:57.657Z,9.50
2022-11-05T16:34:27.255Z,9.50
2022-11-05T16:36:56.557Z,9.40
2022-11-05T16:39:23.367Z,9.40
2022-11-05T16:41:50.419Z,9.40
2022-11-05T16:44:17.135Z,9.40
2022-11-05T16:46:47.612Z,9.40
2022-11-05T16:49:15.716Z,9.40
2022-11-05T16:51:43.436Z,9.30
2022-11-05T16:54:10.823Z,9.30
2022-11-05T16:56:39.724Z,9.30
2022-11-05T16:59:09.616Z,9.30
2022-11-05T17:01:39.271Z,9.30
2022-11-05T17:04:06.593Z,9.30
2022-11-05T17:06:33.272Z,9.30
2022-11-05T17:09:00.220Z,9.30
2022-11-05T17:11:26.833Z,9.30
2022-11-05T17:13:53.938Z,9.30
2022-11-05T17:16:20.596Z,9.30
2022-11-05T17:18:47.965Z,9.30
2022-11-05T17:21:15.310Z,9.30
2022-11-05T17:23:42.545Z,9.30
2022-11-05T17:26:11.797Z,9.30
2022-11-05T17:28:40.768Z,9.30
2022-11-05T17:31:09.717Z,9.30
2022-11-05T17:33:37.029Z,9.30
2022-11-05T17:36:08.037Z,9.40
2022-11-05T17:38:35.699Z,9.40
2022-11-05T17:41:02.416Z,9.40
2022-11-05T17:43:29.751Z,9.40
2022-11-05T17:46:01.547Z,9.40
2022-11-05T17:48:31.602Z,9.40
2022-11-05T17:50:58.299Z,9.40
2022-11-05T17:53:25.018Z,9.40
2022-11-05T17:55:51.647Z,9.40
2022-11-05T17:58:18.784Z,9.40
2022-11-05T18:00:46.211Z,9.40
2022-11-05T18:03:13.825Z,9.50
2022-11-05T18:05:41.871Z,9.40
2022-11-05T18:08:09.414Z,9.50
2022-11-05T18:10:37.783Z,9.50
2022-11-05T18:13:05.275Z,9.50
2022-11-05T18:15:32.050Z,9.50
2022-11-05T18:17:58.956Z,9.50
2022-11-05T18:20:25.736Z,9.50
2022-11-05T18:22:52.444Z,9.50
2022-11-05T18:25:19.372Z,9.50
2022-11-05T18:27:46.666Z,9.50
2022-11-05T18:30:15.311Z,9.50
2022-11-05T18:32:44.503Z,9.60
2022-11-05T18:35:11.736Z,9.60
2022-11-05T18:37:39.561Z,9.60
2022-11-05T18:40:07.652Z,9.60
2022-11-05T18:42:34.997Z,9.60
2022-11-05T18:45:01.740Z,9.60
2022-11-05T18:47:29.085Z,9.50
2022-11-05T18:49:55.721Z,9.60
2022-11-05T18:52:22.786Z,9.50
2022-11-05T18:54:49.487Z,9.50
2022-11-05T18:57:16.985Z,9.50
2022-11-05T18:59:46.544Z,9.50
2022-11-05T19:02:14.954Z,9.40
2022-11-05T19:05:00.278Z,9.40
2022-11-05T19:07:29.319Z,9.50
2022-11-05T19:09:56.169Z,9.50
2022-11-05T19:12:23.425Z,9.50
2022-11-05T19:14:50.097Z,9.50
2022-11-05T19:17:17.361Z,9.40
2022-11-05T19:19:44.102Z,9.40
2022-11-05T19:22:11.633Z,9.40
2022-11-05T19:24:38.283Z,9.30
2022-11-05T19:27:05.144Z,9.30
2022-11-05T19:29:31.840Z,9.30
2022-11-05T19:31:59.166Z,9.20
2022-11-05T19:34:25.835Z,9.20
2022-11-05T19:36:53.175Z,9.10
2022-11-05T19:39:19.834Z,9.10
2022-11-05T19:41:48.627Z,9.00
2022-11-05T19:44:15.203Z,9.00
2022-11-05T19:46:44.162Z,8.90
2022-11-05T19:49:11.164Z,8.90
2022-11-05T19:51:38.275Z,8.80
2022-11-05T19:54:06.210Z,8.80
2022-11-05T19:56:34.605Z,8.80
2022-11-05T19:59:03.176Z,8.90
2022-11-05T20:01:31.398Z,8.90
2022-11-05T20:03:59.315Z,8.90
2022-11-05T20:06:32.056Z,9.00
2022-11-05T20:11:50.021Z,9.00
2022-11-05T20:14:17.168Z,9.00
2022-11-05T20:16:45.813Z,9.00
2022-11-05T20:19:15.420Z,8.90
2022-11-05T20:21:43.392Z,8.90
2022-11-05T20:24:12.428Z,8.90
2022-11-05T20:26:39.880Z,8.90
2022-11-05T20:29:07.292Z,8.90
2022-11-05T20:31:34.367Z,8.90
2022-11-05T20:34:01.860Z,8.90
2022-11-05T20:36:29.656Z,8.80
2022-11-05T20:38:58.407Z,8.90
2022-11-05T20:41:25.995Z,8.80
2022-11-05T20:43:53.913Z,8.80
2022-11-05T20:46:22.263Z,8.80
2022-11-05T20:48:49.917Z,8.80
2022-11-05T20:51:19.161Z,8.80
2022-11-05T20:53:47.093Z,8.80
2022-11-05T20:56:19.458Z,8.80
2022-11-05T20:58:47.451Z,8.70
2022-11-05T21:01:16.391Z,8.70
2022-11-05T21:03:45.020Z,8.70
2022-11-05T21:06:12.689Z,8.70
2022-11-05T21:08:40.557Z,8.70
2022-11-05T21:11:07.490Z,8.60
2022-11-05T21:13:34.667Z,8.60
2022-11-05T21:16:02.347Z,8.60
2022-11-05T21:18:32.278Z,8.60
2022-11-05T21:21:02.234Z,8.60
2022-11-05T21:23:29.762Z,8.60
2022-11-05T21:25:56.446Z,8.60
2022-11-05T21:28:23.775Z,8.50
2022-11-05T21:30:50.424Z,8.40
2022-11-05T21:33:18.977Z,8.40
2022-11-05T21:35:47.587Z,8.30
2022-11-05T21:38:16.434Z,8.30
2022-11-05T21:40:43.759Z,8.20
2022-11-05T21:43:12.129Z,8.10
2022-11-05T21:45:40.517Z,8.10
2022-11-05T21:48:08.680Z,8.10
2022-11-05T21:50:56.751Z,8.00
2022-11-05T21:53:43.136Z,8.00
2022-11-05T21:56:41.893Z,7.90
2022-11-05T21:59:31.833Z,7.90
2022-11-05T22:02:02.838Z,7.90
2022-11-05T22:04:31.341Z,7.90
2022-11-05T22:06:58.770Z,7.80
2022-11-05T22:09:26.282Z,7.80
2022-11-05T22:11:54.607Z,7.80
2022-11-05T22:14:23.440Z,7.90
2022-11-05T22:16:50.151Z,7.90
2022-11-05T22:19:17.634Z,8.00
2022-11-05T22:21:44.282Z,8.10
2022-11-05T22:24:10.987Z,8.20
2022-11-05T22:26:40.816Z,8.20
2022-11-05T22:29:08.114Z,8.30
2022-11-05T22:31:36.686Z,8.30
2022-11-05T22:34:04.526Z,8.30
2022-11-05T22:36:32.627Z,8.30
2022-11-05T22:38:59.305Z,8.30
2022-11-05T22:41:26.736Z,8.30
2022-11-05T22:43:53.342Z,8.30
2022-11-05T22:46:23.591Z,8.30
2022-11-05T22:48:51.074Z,8.30
2022-11-05T22:51:23.096Z,8.30
2022-11-05T22:53:50.654Z,8.30
2022-11-05T22:56:20.151Z,8.30
2022-11-05T22:58:48.351Z,8.40
2022-11-05T23:01:15.903Z,8.30
2022-11-05T23:03:45.391Z,8.30
2022-11-05T23:06:36.543Z,8.30
2022-11-05T23:09:35.319Z,8.30
2022-11-05T23:12:04.580Z,8.30
2022-11-05T23:14:31.584Z,8.20
2022-11-05T23:17:17.067Z,8.20
2022-11-05T23:20:02.557Z,8.10
2022-11-05T23:22:50.631Z,8.10
2022-11-05T23:25:20.544Z,8.00
2022-11-05T23:27:50.215Z,8.00
2022-11-05T23:30:22.308Z,8.00
2022-11-05T23:32:50.559Z,7.90
2022-11-05T23:35:38.204Z,7.90
2022-11-05T23:38:24.144Z,7.80
2022-11-05T23:41:09.394Z,7.80
2022-11-05T23:43:55.129Z,7.70
2022-11-05T23:46:40.709Z,7.70
2022-11-05T23:49:07.978Z,7.70
2022-11-05T23:51:34.578Z,7.70
2022-11-05T23:54:01.834Z,7.70
2022-11-05T23:56:28.425Z,7.70
2022-11-05T23:58:55.670Z,7.70
